Time;durP1;ratioP1;P1;durP2;ratioP2;P2;SDS_P1;SDS_P2;PMS_P1;PMS_P2;Temp;Humidity;BMP_temperature;BMP_pressure;BME280_temperature;BME280_humidity;BME280_pressure;Samples;Min_cycle;Max_cycle;Signal;HPM_P1;HPM_P2
2021/04/17 00:00:12;;;;;;;10.50;5.90;;;;;;;;;;5032584;28;20029;-46
2021/04/17 00:02:39;;;;;;;9.07;5.50;;;;;;;;;;5032647;28;20113;-45
2021/04/17 00:05:07;;;;;;;8.25;5.53;;;;;;;;;;5032993;28;20025;-47
2021/04/17 00:07:33;;;;;;;10.07;6.20;;;;;;;;;;5032696;28;20022;-50
2021/04/17 00:09:59;;;;;;;8.60;6.28;;;;;;;;;;5032956;28;20049;-45
2021/04/17 00:12:25;;;;;;;8.90;5.72;;;;;;;;;;5032343;28;20025;-44
2021/04/17 00:14:52;;;;;;;10.25;6.10;;;;;;;;;;5032812;28;20488;-44
2021/04/17 00:17:19;;;;;;;8.95;5.82;;;;;;;;;;5032669;28;20112;-44
2021/04/17 00:19:46;;;;;;;9.55;6.18;;;;;;;;;;5032432;28;20057;-44
2021/04/17 00:22:12;;;;;;;10.30;6.00;;;;;;;;;;5032287;28;20091;-47
2021/04/17 00:24:38;;;;;;;12.02;6.38;;;;;;;;;;5032430;28;20025;-45
2021/04/17 00:27:06;;;;;;;9.43;6.18;;;;;;;;;;5032511;28;20436;-45
2021/04/17 00:29:32;;;;;;;8.18;5.50;;;;;;;;;;5032515;28;20033;-45
2021/04/17 00:31:59;;;;;;;9.00;5.78;;;;;;;;;;5032065;28;20033;-44
2021/04/17 00:34:25;;;;;;;10.07;6.43;;;;;;;;;;5032536;28;20436;-45
2021/04/17 00:36:51;;;;;;;9.10;5.68;;;;;;;;;;5032165;28;20116;-44
2021/04/17 00:39:17;;;;;;;10.27;6.65;;;;;;;;;;5032450;28;20029;-44
2021/04/17 00:41:44;;;;;;;9.07;5.70;;;;;;;;;;5032016;28;20034;-44
2021/04/17 00:44:10;;;;;;;9.75;5.72;;;;;;;;;;5032004;28;20078;-46
2021/04/17 00:46:36;;;;;;;10.45;6.25;;;;;;;;;;5032152;28;20026;-46
2021/04/17 00:49:07;;;;;;;8.90;5.43;;;;;;;;;;5032547;28;20022;-45
2021/04/17 00:51:33;;;;;;;9.07;5.70;;;;;;;;;;5032164;28;20104;-46
2021/04/17 00:53:59;;;;;;;10.20;6.20;;;;;;;;;;5032297;28;20076;-45
2021/04/17 00:56:25;;;;;;;10.15;5.82;;;;;;;;;;5034978;28;20108;-44
2021/04/17 00:58:51;;;;;;;9.27;5.78;;;;;;;;;;5035596;28;20045;-45
2021/04/17 01:01:18;;;;;;;10.38;6.05;;;;;;;;;;5036251;28;20127;-45
2021/04/17 01:04:05;;;;;;;10.45;5.78;;;;;;;;;;5035913;28;20500;-44
2021/04/17 01:06:47;;;;;;;10.50;6.05;;;;;;;;;;5036168;28;20025;-44
2021/04/17 01:09:16;;;;;;;9.82;6.00;;;;;;;;;;5036060;28;20389;-44
2021/04/17 01:11:45;;;;;;;11.30;5.63;;;;;;;;;;5035835;28;20037;-46
2021/04/17 01:14:12;;;;;;;8.32;5.93;;;;;;;;;;5035010;28;20117;-44
2021/04/17 01:16:39;;;;;;;8.75;6.15;;;;;;;;;;5035216;28;20492;-45
2021/04/17 01:19:08;;;;;;;9.45;6.28;;;;;;;;;;5035439;28;20029;-45
2021/04/17 01:21:34;;;;;;;12.90;6.95;;;;;;;;;;5035367;28;20662;-44
2021/04/17 01:24:03;;;;;;;10.63;6.05;;;;;;;;;;5035575;28;20087;-44
2021/04/17 01:26:29;;;;;;;9.98;6.00;;;;;;;;;;5035807;28;20025;-44
2021/04/17 01:28:57;;;;;;;10.68;5.60;;;;;;;;;;5035632;28;20049;-44
2021/04/17 01:31:25;;;;;;;8.10;6.05;;;;;;;;;;5035430;28;20112;-44
2021/04/17 01:33:53;;;;;;;10.90;6.22;;;;;;;;;;5035432;28;20117;-44
2021/04/17 01:36:19;;;;;;;10.18;6.20;;;;;;;;;;5035650;28;20057;-46
2021/04/17 01:38:52;;;;;;;8.55;5.20;;;;;;;;;;5035540;28;20025;-44
2021/04/17 01:41:19;;;;;;;9.27;5.35;;;;;;;;;;5035247;28;20037;-45
2021/04/17 01:43:48;;;;;;;9.90;5.65;;;;;;;;;;5035077;28;20025;-44
2021/04/17 01:46:16;;;;;;;9.18;5.90;;;;;;;;;;5035246;28;20064;-46
2021/04/17 01:48:43;;;;;;;9.63;5.72;;;;;;;;;;5035442;28;20480;-44
2021/04/17 01:51:09;;;;;;;9.52;5.68;;;;;;;;;;5035533;28;20100;-44
2021/04/17 01:53:37;;;;;;;10.45;5.60;;;;;;;;;;5035237;28;20079;-44
2021/04/17 01:56:04;;;;;;;8.63;5.53;;;;;;;;;;5035291;28;20425;-47
2021/04/17 01:58:31;;;;;;;8.50;5.72;;;;;;;;;;5034668;28;20144;-44
2021/04/17 02:00:59;;;;;;;9.20;5.57;;;;;;;;;;5034830;28;20419;-47
2021/04/17 02:03:25;;;;;;;9.70;5.82;;;;;;;;;;5035159;28;20103;-44
2021/04/17 02:05:52;;;;;;;8.98;5.70;;;;;;;;;;5034808;28;20047;-45
2021/04/17 02:08:19;;;;;;;8.25;5.90;;;;;;;;;;5033775;28;20026;-45
2021/04/17 02:10:46;;;;;;;8.10;5.20;;;;;;;;;;5035053;28;20017;-44
2021/04/17 02:13:12;;;;;;;11.32;5.60;;;;;;;;;;5034655;28;20500;-45
2021/04/17 02:15:40;;;;;;;8.43;5.47;;;;;;;;;;5035306;28;20033;-48
2021/04/17 02:18:10;;;;;;;9.55;6.28;;;;;;;;;;5034748;28;20112;-45
2021/04/17 02:20:40;;;;;;;8.63;5.50;;;;;;;;;;5034655;28;20526;-46
2021/04/17 02:23:07;;;;;;;22.17;9.35;;;;;;;;;;5034983;28;20025;-44
2021/04/17 02:25:33;;;;;;;20.27;8.73;;;;;;;;;;5315836;22;20149;-48
2021/04/17 02:27:59;;;;;;;18.88;8.65;;;;;;;;;;5035339;28;20391;-47
2021/04/17 02:30:26;;;;;;;20.48;8.35;;;;;;;;;;5053861;28;20412;-46
2021/04/17 02:32:56;;;;;;;33.35;11.38;;;;;;;;;;5053610;28;20083;-46
2021/04/17 02:35:22;;;;;;;37.55;14.07;;;;;;;;;;5053507;28;20029;-49
2021/04/17 02:37:48;;;;;;;21.50;8.38;;;;;;;;;;5053751;28;20074;-46
2021/04/17 02:40:14;;;;;;;19.48;8.27;;;;;;;;;;5053678;28;20506;-47
2021/04/17 02:42:40;;;;;;;24.35;8.70;;;;;;;;;;5053255;28;20019;-47
2021/04/17 02:45:07;;;;;;;28.35;10.48;;;;;;;;;;5053587;28;20032;-47
2021/04/17 02:47:33;;;;;;;32.67;10.88;;;;;;;;;;5035570;28;20388;-46
2021/04/17 02:49:59;;;;;;;30.88;11.02;;;;;;;;;;5053334;28;20461;-46
2021/04/17 02:52:25;;;;;;;27.42;10.35;;;;;;;;;;5053226;28;20106;-46
2021/04/17 02:54:52;;;;;;;29.50;11.60;;;;;;;;;;5053147;28;20357;-46
2021/04/17 02:57:18;;;;;;;24.70;10.13;;;;;;;;;;5052964;28;20538;-46
2021/04/17 02:59:44;;;;;;;31.67;11.88;;;;;;;;;;5053003;28;20029;-47
2021/04/17 03:02:10;;;;;;;28.48;9.77;;;;;;;;;;5052938;28;20038;-46
2021/04/17 03:04:36;;;;;;;21.25;9.52;;;;;;;;;;5052995;28;20029;-45
2021/04/17 03:07:02;;;;;;;23.65;10.40;;;;;;;;;;5053396;28;20500;-46
2021/04/17 03:09:28;;;;;;;27.00;12.40;;;;;;;;;;5053071;28;20033;-48
2021/04/17 03:11:54;;;;;;;20.73;10.57;;;;;;;;;;5052697;28;20100;-45
2021/04/17 03:14:20;;;;;;;16.70;9.00;;;;;;;;;;5052763;28;20025;-46
2021/04/17 03:16:46;;;;;;;13.88;8.77;;;;;;;;;;5052706;28;20029;-50
2021/04/17 03:19:13;;;;;;;12.27;8.25;;;;;;;;;;5052517;28;20384;-46
2021/04/17 03:21:39;;;;;;;16.17;8.63;;;;;;;;;;5052562;28;20033;-47
2021/04/17 03:24:05;;;;;;;12.68;7.22;;;;;;;;;;5052766;28;20549;-47
2021/04/17 03:26:31;;;;;;;12.88;7.68;;;;;;;;;;5052348;28;20053;-46
2021/04/17 03:28:57;;;;;;;11.18;7.78;;;;;;;;;;5052678;28;20055;-48
2021/04/17 03:31:23;;;;;;;13.48;7.93;;;;;;;;;;5052408;28;20029;-47
2021/04/17 03:33:49;;;;;;;12.15;7.68;;;;;;;;;;5052666;28;20021;-46
2021/04/17 03:36:15;;;;;;;11.20;7.05;;;;;;;;;;5052352;28;20033;-48
2021/04/17 03:38:42;;;;;;;11.32;7.30;;;;;;;;;;5052275;28;20104;-46
2021/04/17 03:41:08;;;;;;;15.30;8.20;;;;;;;;;;5051895;28;20122;-48
2021/04/17 03:43:34;;;;;;;14.27;7.88;;;;;;;;;;5052315;28;20086;-51
2021/04/17 03:46:01;;;;;;;14.57;8.00;;;;;;;;;;5052186;28;20071;-48
2021/04/17 03:48:27;;;;;;;19.02;10.35;;;;;;;;;;5052128;28;20031;-51
2021/04/17 03:50:53;;;;;;;17.98;9.82;;;;;;;;;;5052086;28;20536;-47
2021/04/17 03:53:19;;;;;;;17.13;8.38;;;;;;;;;;5052043;28;20033;-45
2021/04/17 03:55:45;;;;;;;12.93;7.63;;;;;;;;;;5052010;28;20017;-46
2021/04/17 03:58:11;;;;;;;14.20;7.53;;;;;;;;;;5051827;28;20431;-45
2021/04/17 04:00:37;;;;;;;14.15;7.03;;;;;;;;;;5051948;28;20040;-46
2021/04/17 04:03:04;;;;;;;17.90;7.50;;;;;;;;;;5051914;28;20029;-45
2021/04/17 04:05:30;;;;;;;11.70;7.40;;;;;;;;;;5051790;28;20041;-45
2021/04/17 04:07:56;;;;;;;13.25;7.10;;;;;;;;;;5051800;28;20029;-45
2021/04/17 04:10:22;;;;;;;15.02;7.88;;;;;;;;;;5051998;28;20024;-45
2021/04/17 04:12:48;;;;;;;14.50;7.60;;;;;;;;;;5051473;28;20465;-45
2021/04/17 04:15:14;;;;;;;13.52;7.60;;;;;;;;;;5051706;28;20032;-46
2021/04/17 04:17:41;;;;;;;17.83;8.98;;;;;;;;;;5051602;28;20490;-46
2021/04/17 04:20:08;;;;;;;20.25;9.45;;;;;;;;;;5052053;28;20383;-45
2021/04/17 04:22:34;;;;;;;17.08;8.35;;;;;;;;;;5051508;28;20041;-46
2021/04/17 04:25:01;;;;;;;18.30;8.85;;;;;;;;;;5051605;28;20025;-46
2021/04/17 04:27:27;;;;;;;17.33;9.55;;;;;;;;;;5051237;28;20071;-46
2021/04/17 04:29:53;;;;;;;15.30;8.02;;;;;;;;;;5050937;28;20041;-46
2021/04/17 04:32:20;;;;;;;14.57;7.72;;;;;;;;;;5051712;28;20109;-46
2021/04/17 04:34:46;;;;;;;11.18;7.35;;;;;;;;;;5051656;28;20029;-46
2021/04/17 04:37:12;;;;;;;11.55;7.00;;;;;;;;;;5051445;28;20040;-46
2021/04/17 04:39:38;;;;;;;16.88;8.02;;;;;;;;;;5051822;28;20399;-45
2021/04/17 04:42:04;;;;;;;12.98;7.63;;;;;;;;;;5051130;28;20032;-46
2021/04/17 04:44:31;;;;;;;12.63;7.75;;;;;;;;;;5051306;28;20021;-47
2021/04/17 04:46:57;;;;;;;12.70;7.60;;;;;;;;;;5051378;28;20059;-45
2021/04/17 04:49:23;;;;;;;13.95;8.00;;;;;;;;;;5051354;28;20535;-45
2021/04/17 04:51:49;;;;;;;12.75;7.05;;;;;;;;;;5051321;28;20023;-45
2021/04/17 04:54:15;;;;;;;10.23;6.45;;;;;;;;;;5051350;28;20033;-45
2021/04/17 04:56:41;;;;;;;11.40;6.97;;;;;;;;;;5051426;28;20017;-45
2021/04/17 04:59:07;;;;;;;13.63;7.18;;;;;;;;;;5051336;28;20049;-45
2021/04/17 05:01:33;;;;;;;15.15;9.23;;;;;;;;;;5051109;28;20037;-45
2021/04/17 05:03:59;;;;;;;17.75;10.05;;;;;;;;;;5051174;28;20025;-45
2021/04/17 05:06:25;;;;;;;15.05;9.10;;;;;;;;;;5051258;28;20025;-47
2021/04/17 05:08:52;;;;;;;21.58;10.20;;;;;;;;;;5051162;28;20354;-45
2021/04/17 05:11:18;;;;;;;14.43;9.00;;;;;;;;;;5051125;28;20473;-45
2021/04/17 05:13:44;;;;;;;19.63;10.55;;;;;;;;;;5051447;28;20029;-46
2021/04/17 05:16:10;;;;;;;18.20;10.00;;;;;;;;;;5051217;28;20111;-46
2021/04/17 05:18:36;;;;;;;17.80;10.07;;;;;;;;;;5051144;28;20029;-45
2021/04/17 05:21:02;;;;;;;14.07;8.85;;;;;;;;;;5051767;28;20025;-45
2021/04/17 05:23:28;;;;;;;14.68;9.55;;;;;;;;;;5051271;28;20041;-49
2021/04/17 05:25:54;;;;;;;14.52;9.75;;;;;;;;;;5050896;28;20480;-46
2021/04/17 05:28:20;;;;;;;12.68;8.38;;;;;;;;;;5050825;28;20025;-47
2021/04/17 05:30:46;;;;;;;14.70;9.02;;;;;;;;;;5051513;28;20043;-46
2021/04/17 05:33:13;;;;;;;17.30;11.95;;;;;;;;;;5051291;28;20385;-45
2021/04/17 05:35:39;;;;;;;15.35;10.05;;;;;;;;;;5051067;28;20052;-46
2021/04/17 05:38:05;;;;;;;15.55;11.18;;;;;;;;;;5050823;28;20032;-50
2021/04/17 05:40:31;;;;;;;15.65;10.48;;;;;;;;;;5050774;28;20064;-46
2021/04/17 05:42:57;;;;;;;17.45;11.75;;;;;;;;;;5054494;28;20079;-46
2021/04/17 05:45:23;;;;;;;15.55;9.57;;;;;;;;;;5054449;28;20476;-46
2021/04/17 05:47:49;;;;;;;13.57;9.13;;;;;;;;;;5037827;28;20025;-45
2021/04/17 05:50:15;;;;;;;16.25;9.30;;;;;;;;;;5054488;28;20028;-51
2021/04/17 05:52:42;;;;;;;12.93;8.82;;;;;;;;;;5054501;28;20033;-46
2021/04/17 05:55:09;;;;;;;12.57;8.52;;;;;;;;;;5054587;28;20108;-48
2021/04/17 05:57:35;;;;;;;15.90;10.05;;;;;;;;;;5054011;28;20484;-46
2021/04/17 06:00:01;;;;;;;22.27;10.80;;;;;;;;;;5054259;28;20106;-46
2021/04/17 06:02:27;;;;;;;23.60;11.57;;;;;;;;;;5036192;28;20496;-46
2021/04/17 06:04:53;;;;;;;27.52;13.82;;;;;;;;;;5054032;28;20029;-48
2021/04/17 06:07:20;;;;;;;18.38;10.95;;;;;;;;;;5054053;28;20029;-45
2021/04/17 06:09:46;;;;;;;23.65;13.00;;;;;;;;;;5054222;28;20017;-48
2021/04/17 06:12:12;;;;;;;21.67;12.82;;;;;;;;;;5054116;28;20033;-50
2021/04/17 06:14:38;;;;;;;21.52;11.63;;;;;;;;;;5054154;28;20376;-46
2021/04/17 06:17:04;;;;;;;20.65;12.98;;;;;;;;;;5053920;28;20028;-48
2021/04/17 06:19:30;;;;;;;19.70;11.68;;;;;;;;;;5053837;28;20021;-47
2021/04/17 06:21:56;;;;;;;18.23;11.70;;;;;;;;;;5053644;28;20037;-45
2021/04/17 06:24:22;;;;;;;21.90;13.02;;;;;;;;;;5053797;28;20025;-47
2021/04/17 06:26:49;;;;;;;22.05;13.57;;;;;;;;;;5053543;28;20051;-51
2021/04/17 06:29:16;;;;;;;25.60;14.88;;;;;;;;;;5053605;28;20112;-52
2021/04/17 06:31:42;;;;;;;22.60;13.32;;;;;;;;;;5053648;28;20035;-47
2021/04/17 06:34:08;;;;;;;26.33;14.27;;;;;;;;;;5035702;28;20120;-48
2021/04/17 06:36:34;;;;;;;23.48;13.38;;;;;;;;;;5053831;28;20059;-51
2021/04/17 06:39:00;;;;;;;18.33;11.77;;;;;;;;;;5053310;28;20074;-51
2021/04/17 06:41:27;;;;;;;18.50;11.50;;;;;;;;;;5053769;28;20033;-50
2021/04/17 06:43:54;;;;;;;16.63;10.77;;;;;;;;;;5053257;28;20512;-50
2021/04/17 06:46:21;;;;;;;15.60;10.07;;;;;;;;;;5053247;28;20029;-50
2021/04/17 06:48:48;;;;;;;15.73;10.98;;;;;;;;;;5053381;28;20029;-51
2021/04/17 06:51:15;;;;;;;15.02;10.75;;;;;;;;;;5053348;28;20033;-48
2021/04/17 06:53:42;;;;;;;18.92;12.48;;;;;;;;;;5052939;28;20033;-45
2021/04/17 06:56:08;;;;;;;17.85;12.63;;;;;;;;;;5053691;28;20475;-47
2021/04/17 06:58:35;;;;;;;18.02;11.18;;;;;;;;;;5052943;28;20025;-45
2021/04/17 07:01:01;;;;;;;14.77;10.68;;;;;;;;;;5053044;28;20039;-46
2021/04/17 07:03:27;;;;;;;15.93;11.30;;;;;;;;;;5053252;28;20104;-45
2021/04/17 07:05:53;;;;;;;18.67;12.30;;;;;;;;;;5052914;28;20470;-45
2021/04/17 07:08:19;;;;;;;18.80;12.02;;;;;;;;;;5053112;28;20104;-45
2021/04/17 07:10:45;;;;;;;17.67;11.80;;;;;;;;;;5052974;28;20032;-46
2021/04/17 07:13:13;;;;;;;19.88;12.85;;;;;;;;;;5052829;28;20028;-45
2021/04/17 07:15:39;;;;;;;21.20;13.13;;;;;;;;;;5052803;28;20025;-46
2021/04/17 07:18:24;;;;;;;31.88;16.15;;;;;;;;;;5052689;28;20111;-46
2021/04/17 07:20:50;;;;;;;33.50;19.40;;;;;;;;;;5052752;28;20028;-45
2021/04/17 07:23:32;;;;;;;28.80;17.33;;;;;;;;;;5052768;28;20029;-45
2021/04/17 07:26:08;;;;;;;37.63;22.65;;;;;;;;;;5052342;28;20053;-46
2021/04/17 07:28:36;;;;;;;32.90;19.38;;;;;;;;;;5052684;28;20407;-46
2021/04/17 07:31:02;;;;;;;37.72;22.27;;;;;;;;;;5052375;28;20035;-48
2021/04/17 07:33:29;;;;;;;32.65;19.42;;;;;;;;;;5052365;28;20032;-45
2021/04/17 07:35:55;;;;;;;27.20;18.10;;;;;;;;;;5053118;28;20025;-45
2021/04/17 07:38:23;;;;;;;30.45;18.88;;;;;;;;;;5051077;28;20132;-46
2021/04/17 07:41:06;;;;;;;23.08;13.82;;;;;;;;;;5050485;28;20045;-46
2021/04/17 07:43:44;;;;;;;23.95;15.60;;;;;;;;;;5051662;28;20037;-46
2021/04/17 07:46:10;;;;;;;29.80;18.40;;;;;;;;;;5052077;28;20037;-45
2021/04/17 07:48:37;;;;;;;25.08;16.58;;;;;;;;;;5051686;28;20029;-46
2021/04/17 07:51:07;;;;;;;28.00;18.23;;;;;;;;;;5051902;28;20091;-44
2021/04/17 07:53:34;;;;;;;25.67;17.95;;;;;;;;;;5052006;28;20064;-46
2021/04/17 07:56:19;;;;;;;25.20;15.73;;;;;;;;;;5052298;28;20071;-45
2021/04/17 07:58:46;;;;;;;23.58;15.23;;;;;;;;;;5051840;28;20036;-45
2021/04/17 08:01:12;;;;;;;19.08;12.85;;;;;;;;;;5051912;28;20044;-45
2021/04/17 08:03:38;;;;;;;23.58;14.50;;;;;;;;;;5051968;28;20059;-45
2021/04/17 08:06:05;;;;;;;21.02;14.25;;;;;;;;;;5051065;28;20094;-45
2021/04/17 08:08:31;;;;;;;21.00;13.70;;;;;;;;;;5051843;28;20108;-45
2021/04/17 08:10:57;;;;;;;21.23;14.52;;;;;;;;;;5052071;28;20146;-45
2021/04/17 08:13:23;;;;;;;24.15;15.18;;;;;;;;;;5051952;28;20097;-45
2021/04/17 08:15:50;;;;;;;24.38;14.55;;;;;;;;;;5051758;28;20021;-46
2021/04/17 08:18:16;;;;;;;26.15;16.67;;;;;;;;;;5051691;28;20075;-46
2021/04/17 08:20:42;;;;;;;27.85;17.15;;;;;;;;;;5033706;28;20451;-45
2021/04/17 08:23:09;;;;;;;28.25;17.77;;;;;;;;;;5051621;28;20113;-47
2021/04/17 08:25:36;;;;;;;35.35;21.52;;;;;;;;;;5051430;28;20028;-46
2021/04/17 08:28:02;;;;;;;38.20;23.55;;;;;;;;;;5051607;28;20021;-46
2021/04/17 08:30:29;;;;;;;39.47;21.92;;;;;;;;;;5051417;28;20049;-49
2021/04/17 08:32:55;;;;;;;39.53;21.63;;;;;;;;;;5051734;28;20029;-47
2021/04/17 08:35:23;;;;;;;42.88;25.85;;;;;;;;;;5051891;28;20067;-46
2021/04/17 08:37:53;;;;;;;40.38;23.92;;;;;;;;;;5051698;28;20111;-45
2021/04/17 08:40:38;;;;;;;36.17;21.65;;;;;;;;;;5051325;28;20025;-46
2021/04/17 08:43:18;;;;;;;33.70;20.73;;;;;;;;;;5051313;28;20505;-45
2021/04/17 08:46:05;;;;;;;29.75;18.45;;;;;;;;;;5051282;28;20082;-50
2021/04/17 08:48:46;;;;;;;31.77;19.70;;;;;;;;;;5051649;28;20041;-52
2021/04/17 08:51:21;;;;;;;27.95;18.15;;;;;;;;;;5051341;28;20100;-50
2021/04/17 08:53:48;;;;;;;25.88;16.15;;;;;;;;;;5051321;28;20044;-49
2021/04/17 08:56:14;;;;;;;24.63;16.35;;;;;;;;;;5051299;28;20025;-45
2021/04/17 08:58:40;;;;;;;27.58;15.88;;;;;;;;;;5051255;28;20059;-49
2021/04/17 09:01:09;;;;;;;30.02;17.17;;;;;;;;;;5052052;28;20063;-45
2021/04/17 09:03:35;;;;;;;23.63;15.50;;;;;;;;;;5051228;28;20104;-45
2021/04/17 09:06:01;;;;;;;23.02;15.02;;;;;;;;;;5051121;28;20025;-46
2021/04/17 09:08:27;;;;;;;24.42;17.15;;;;;;;;;;5051592;28;20466;-46
2021/04/17 09:10:54;;;;;;;24.65;14.95;;;;;;;;;;5052577;28;20017;-46
2021/04/17 09:13:20;;;;;;;23.15;14.32;;;;;;;;;;5051316;28;20480;-46
2021/04/17 09:15:53;;;;;;;26.90;14.85;;;;;;;;;;5051636;28;20029;-48
2021/04/17 09:18:34;;;;;;;28.40;16.67;;;;;;;;;;5055265;28;20028;-46
2021/04/17 09:21:09;;;;;;;27.70;15.18;;;;;;;;;;5054814;28;20469;-45
2021/04/17 09:23:53;;;;;;;25.83;15.38;;;;;;;;;;5054994;28;20492;-48
2021/04/17 09:26:45;;;;;;;30.70;17.05;;;;;;;;;;5054668;28;20040;-48
2021/04/17 09:29:14;;;;;;;35.00;18.83;;;;;;;;;;5052839;28;20228;-45
2021/04/17 09:31:40;;;;;;;34.28;18.55;;;;;;;;;;5054532;28;20025;-46
2021/04/17 09:34:08;;;;;;;25.33;15.13;;;;;;;;;;5054719;28;20025;-48
2021/04/17 09:36:34;;;;;;;19.05;12.55;;;;;;;;;;5054660;28;20487;-46
2021/04/17 09:39:01;;;;;;;29.95;16.27;;;;;;;;;;5054535;28;20028;-49
2021/04/17 09:41:49;;;;;;;25.10;14.52;;;;;;;;;;5054649;28;20033;-48
2021/04/17 09:44:16;;;;;;;15.77;9.50;;;;;;;;;;5054758;28;20017;-47
2021/04/17 09:46:42;;;;;;;17.50;10.93;;;;;;;;;;5054285;28;20025;-50
2021/04/17 09:49:08;;;;;;;14.98;10.43;;;;;;;;;;5054441;28;20148;-47
2021/04/17 09:51:34;;;;;;;17.33;10.82;;;;;;;;;;5054617;28;20464;-51
2021/04/17 09:54:01;;;;;;;16.27;11.35;;;;;;;;;;5054375;28;20025;-47
2021/04/17 09:56:29;;;;;;;16.90;11.98;;;;;;;;;;5054374;28;20502;-46
2021/04/17 09:58:56;;;;;;;18.45;11.80;;;;;;;;;;5054424;28;20483;-46
2021/04/17 10:01:22;;;;;;;17.50;12.32;;;;;;;;;;5054029;28;20033;-45
2021/04/17 10:03:52;;;;;;;20.65;12.35;;;;;;;;;;5054313;28;20060;-46
2021/04/17 10:06:47;;;;;;;15.55;10.57;;;;;;;;;;5054373;28;20024;-45
2021/04/17 10:09:19;;;;;;;14.35;10.95;;;;;;;;;;5044980;28;20048;-45
2021/04/17 10:11:45;;;;;;;16.70;9.95;;;;;;;;;;5053928;28;20511;-48
2021/04/17 10:14:13;;;;;;;14.93;9.75;;;;;;;;;;5054244;28;20339;-46
2021/04/17 10:16:40;;;;;;;17.08;11.38;;;;;;;;;;5053766;28;20033;-46
2021/04/17 10:19:25;;;;;;;15.73;9.70;;;;;;;;;;5053766;28;20033;-46
2021/04/17 10:21:56;;;;;;;16.10;9.77;;;;;;;;;;5053770;28;20028;-46
2021/04/17 10:24:29;;;;;;;17.88;11.25;;;;;;;;;;5053723;28;20032;-46
2021/04/17 10:26:55;;;;;;;;;;;;;;;;;;5054208;28;20291;-45
2021/04/17 10:29:22;;;;;;;17.10;11.25;;;;;;;;;;5052801;28;20508;-45
2021/04/17 10:32:05;;;;;;;19.80;10.55;;;;;;;;;;5053460;28;20044;-45
2021/04/17 10:34:32;;;;;;;18.55;10.88;;;;;;;;;;5053654;28;20086;-45
2021/04/17 10:37:04;;;;;;;20.45;10.32;;;;;;;;;;5053605;28;20043;-45
2021/04/17 10:39:31;;;;;;;16.63;8.40;;;;;;;;;;5053711;28;20025;-45
2021/04/17 10:41:58;;;;;;;17.65;9.88;;;;;;;;;;5053330;28;20033;-46
2021/04/17 10:44:24;;;;;;;18.05;10.52;;;;;;;;;;5053397;28;20486;-46
2021/04/17 10:46:50;;;;;;;20.08;11.60;;;;;;;;;;5053224;28;20036;-46
2021/04/17 10:49:35;;;;;;;22.70;12.68;;;;;;;;;;5053317;28;20040;-46
2021/04/17 10:52:03;;;;;;;17.50;10.18;;;;;;;;;;5053410;28;20083;-46
2021/04/17 10:54:30;;;;;;;23.63;11.07;;;;;;;;;;5053554;28;20036;-45
2021/04/17 10:56:57;;;;;;;18.48;10.30;;;;;;;;;;5053410;28;20480;-45
2021/04/17 10:59:23;;;;;;;18.10;10.25;;;;;;;;;;5053109;28;20025;-46
2021/04/17 11:01:49;;;;;;;27.13;15.98;;;;;;;;;;5052820;28;20469;-45
2021/04/17 11:04:15;;;;;;;30.23;16.48;;;;;;;;;;5052996;28;20032;-45
2021/04/17 11:06:46;;;;;;;32.40;15.13;;;;;;;;;;5052973;28;20025;-45
2021/04/17 11:09:14;;;;;;;24.20;13.82;;;;;;;;;;5052966;28;20376;-47
2021/04/17 11:11:52;;;;;;;27.35;16.13;;;;;;;;;;5053365;28;20017;-50
2021/04/17 11:14:24;;;;;;;17.15;10.38;;;;;;;;;;5052795;28;20075;-45
2021/04/17 11:16:51;;;;;;;16.20;10.35;;;;;;;;;;5052559;28;20025;-46
2021/04/17 11:19:27;;;;;;;18.80;12.10;;;;;;;;;;5052762;28;20029;-45
2021/04/17 11:22:08;;;;;;;20.13;12.48;;;;;;;;;;5052648;28;20594;-46
2021/04/17 11:24:35;;;;;;;24.85;13.18;;;;;;;;;;5053034;28;20353;-46
2021/04/17 11:27:01;;;;;;;30.42;16.80;;;;;;;;;;5052565;28;20606;-47
2021/04/17 11:29:27;;;;;;;24.92;15.15;;;;;;;;;;5052555;28;20021;-48
2021/04/17 11:31:53;;;;;;;18.98;11.55;;;;;;;;;;5052331;28;20384;-45
2021/04/17 11:34:19;;;;;;;18.00;9.93;;;;;;;;;;5052460;28;20105;-47
2021/04/17 11:36:45;;;;;;;20.33;12.38;;;;;;;;;;5052442;28;20101;-47
2021/04/17 11:39:11;;;;;;;21.77;12.98;;;;;;;;;;5052247;28;20033;-46
2021/04/17 11:41:38;;;;;;;19.52;11.50;;;;;;;;;;5052421;28;20056;-44
2021/04/17 11:44:05;;;;;;;14.15;9.25;;;;;;;;;;5052392;28;20063;-46
2021/04/17 11:46:31;;;;;;;14.38;9.25;;;;;;;;;;5052375;28;20025;-46
2021/04/17 11:48:57;;;;;;;12.25;7.45;;;;;;;;;;5052212;28;20029;-45
2021/04/17 11:51:23;;;;;;;12.40;8.75;;;;;;;;;;5052383;28;20029;-47
2021/04/17 11:53:49;;;;;;;20.80;11.95;;;;;;;;;;5052150;28;20053;-45
2021/04/17 11:56:16;;;;;;;29.33;14.60;;;;;;;;;;5052086;28;20032;-45
2021/04/17 11:58:43;;;;;;;30.15;17.30;;;;;;;;;;5052260;28;20016;-46
2021/04/17 12:01:10;;;;;;;34.10;18.13;;;;;;;;;;5051920;28;20029;-46
2021/04/17 12:03:36;;;;;;;36.80;20.95;;;;;;;;;;5052193;28;20024;-46
2021/04/17 12:06:03;;;;;;;31.38;17.13;;;;;;;;;;5052073;28;20100;-46
2021/04/17 12:08:29;;;;;;;28.63;15.80;;;;;;;;;;5051882;28;20403;-46
2021/04/17 12:10:55;;;;;;;34.33;19.08;;;;;;;;;;5051847;28;20029;-47
2021/04/17 12:13:21;;;;;;;30.15;16.92;;;;;;;;;;5051650;28;20025;-48
2021/04/17 12:15:47;;;;;;;28.75;16.92;;;;;;;;;;5051680;28;20120;-48
2021/04/17 12:18:16;;;;;;;26.92;15.02;;;;;;;;;;5051584;28;20029;-48
2021/04/17 12:20:43;;;;;;;22.45;14.00;;;;;;;;;;5051575;28;20126;-49
2021/04/17 12:23:09;;;;;;;27.85;16.05;;;;;;;;;;5051890;28;20025;-49
2021/04/17 12:25:35;;;;;;;25.00;12.95;;;;;;;;;;5051840;28;20401;-46
2021/04/17 12:28:02;;;;;;;26.30;13.05;;;;;;;;;;5051574;28;20413;-51
2021/04/17 12:30:28;;;;;;;23.25;13.90;;;;;;;;;;5051565;28;20027;-48
2021/04/17 12:32:54;;;;;;;19.70;11.68;;;;;;;;;;5051424;28;20025;-46
2021/04/17 12:35:22;;;;;;;24.40;13.90;;;;;;;;;;5051493;28;20036;-45
2021/04/17 12:37:48;;;;;;;25.08;15.00;;;;;;;;;;5051475;28;20028;-47
2021/04/17 12:40:15;;;;;;;26.60;13.95;;;;;;;;;;5051504;28;20025;-51
2021/04/17 12:42:41;;;;;;;22.27;13.35;;;;;;;;;;5051496;28;20071;-49
2021/04/17 12:45:10;;;;;;;20.15;11.75;;;;;;;;;;5051526;28;20025;-48
2021/04/17 12:47:36;;;;;;;23.42;12.48;;;;;;;;;;5051400;28;20067;-51
2021/04/17 12:50:03;;;;;;;25.02;14.02;;;;;;;;;;5051521;28;20021;-51
2021/04/17 12:52:29;;;;;;;35.20;17.42;;;;;;;;;;5054552;28;20049;-47
2021/04/17 12:54:55;;;;;;;32.80;17.75;;;;;;;;;;5055413;28;20025;-45
2021/04/17 12:57:21;;;;;;;30.38;16.75;;;;;;;;;;5055377;28;20366;-45
2021/04/17 12:59:48;;;;;;;31.50;16.60;;;;;;;;;;5055308;28;20021;-45
2021/04/17 13:02:14;;;;;;;20.50;12.32;;;;;;;;;;5055023;28;20025;-44
2021/04/17 13:04:40;;;;;;;25.48;13.82;;;;;;;;;;5055648;28;20041;-45
2021/04/17 13:07:06;;;;;;;25.27;17.00;;;;;;;;;;5055152;28;20035;-47
2021/04/17 13:09:32;;;;;;;16.00;10.65;;;;;;;;;;5055187;28;20029;-45
2021/04/17 13:11:58;;;;;;;21.75;14.05;;;;;;;;;;5055180;28;20033;-46
2021/04/17 13:14:25;;;;;;;18.42;12.98;;;;;;;;;;5055340;28;20048;-46
2021/04/17 13:16:51;;;;;;;20.90;13.77;;;;;;;;;;5055273;28;20432;-45
2021/04/17 13:19:17;;;;;;;22.75;14.75;;;;;;;;;;5054863;28;20060;-45
2021/04/17 13:21:43;;;;;;;28.00;16.70;;;;;;;;;;5054842;28;20087;-45
2021/04/17 13:24:10;;;;;;;29.88;15.43;;;;;;;;;;5055001;28;20025;-46
2021/04/17 13:26:36;;;;;;;27.73;16.38;;;;;;;;;;5054686;28;20504;-45
2021/04/17 13:29:02;;;;;;;25.58;15.98;;;;;;;;;;5054797;28;20052;-46
2021/04/17 13:31:28;;;;;;;22.92;14.82;;;;;;;;;;5054740;28;20032;-45
2021/04/17 13:33:55;;;;;;;25.05;16.23;;;;;;;;;;5054748;28;20021;-45
2021/04/17 13:36:21;;;;;;;26.00;15.45;;;;;;;;;;5054634;28;20116;-45
2021/04/17 13:38:47;;;;;;;20.63;13.93;;;;;;;;;;5054671;28;20029;-45
2021/04/17 13:41:13;;;;;;;25.70;15.25;;;;;;;;;;5054914;28;20126;-46
2021/04/17 13:43:39;;;;;;;27.08;16.80;;;;;;;;;;5054703;28;20025;-45
2021/04/17 13:46:05;;;;;;;34.13;19.35;;;;;;;;;;5054545;28;20025;-45
2021/04/17 13:48:32;;;;;;;32.60;19.60;;;;;;;;;;5054517;28;20017;-45
2021/04/17 13:50:58;;;;;;;27.15;16.88;;;;;;;;;;5036564;28;20115;-46
2021/04/17 13:53:24;;;;;;;25.08;14.98;;;;;;;;;;5054397;28;20159;-46
2021/04/17 13:55:50;;;;;;;21.55;14.50;;;;;;;;;;5054372;28;20397;-45
2021/04/17 13:58:17;;;;;;;19.65;11.82;;;;;;;;;;5054510;28;20024;-45
2021/04/17 14:00:43;;;;;;;23.35;14.48;;;;;;;;;;5054367;28;20098;-45
2021/04/17 14:03:10;;;;;;;20.45;13.93;;;;;;;;;;5052886;28;20029;-45
2021/04/17 14:05:38;;;;;;;21.27;14.52;;;;;;;;;;5054216;28;20021;-45
2021/04/17 14:08:05;;;;;;;19.40;13.27;;;;;;;;;;5054330;28;20029;-45
2021/04/17 14:10:31;;;;;;;26.33;16.25;;;;;;;;;;5054002;28;20025;-47
2021/04/17 14:12:57;;;;;;;32.00;19.92;;;;;;;;;;5054058;28;20028;-45
2021/04/17 14:15:23;;;;;;;37.35;21.88;;;;;;;;;;5053989;28;20068;-45
2021/04/17 14:17:49;;;;;;;35.47;20.50;;;;;;;;;;5053807;28;20048;-45
2021/04/17 14:20:15;;;;;;;44.50;23.13;;;;;;;;;;5054099;28;20572;-48
2021/04/17 14:22:42;;;;;;;38.83;22.50;;;;;;;;;;5053841;28;20492;-45
2021/04/17 14:25:08;;;;;;;43.05;24.83;;;;;;;;;;5053922;28;20419;-46